createdAt,value
2022-12-03T00:01:57.481Z,102234.47
2022-12-03T00:04:25.019Z,102234.47
2022-12-03T00:06:52.605Z,102224.16
2022-12-03T00:09:20.044Z,102224.16
2022-12-03T00:11:48.069Z,102220.69
2022-12-03T00:14:15.503Z,102220.69
2022-12-03T00:16:43.339Z,102228.47
2022-12-03T00:19:10.719Z,102220.78
2022-12-03T00:21:38.254Z,102221.69
2022-12-03T00:24:06.173Z,102221.69
2022-12-03T00:26:33.586Z,102215.59
2022-12-03T00:29:01.022Z,102209.53
2022-12-03T00:31:28.461Z,102212.91
2022-12-03T00:33:59.123Z,102209.53
2022-12-03T00:36:26.637Z,102211.31
2022-12-03T00:38:54.662Z,102203.53
2022-12-03T00:41:22.082Z,102204.44
2022-12-03T00:43:49.439Z,102200.19
2022-12-03T00:46:21.112Z,102206.19
2022-12-03T00:48:49.078Z,102202.66
2022-12-03T00:51:16.576Z,102210.50
2022-12-03T00:53:44.004Z,102196.66
2022-12-03T00:56:11.500Z,102204.44
2022-12-03T00:58:39.054Z,102202.78
2022-12-03T01:01:06.453Z,102199.31
2022-12-03T01:03:33.967Z,102201.09
2022-12-03T01:06:01.337Z,102206.28
2022-12-03T01:08:28.840Z,102205.50
2022-12-03T01:10:56.473Z,102205.50
2022-12-03T01:13:23.921Z,102203.72
2022-12-03T01:15:51.757Z,102206.38
2022-12-03T01:18:19.334Z,102209.88
2022-12-03T01:20:46.889Z,102212.53
2022-12-03T01:23:14.386Z,102208.22
2022-12-03T01:25:41.982Z,102202.09
2022-12-03T01:28:09.458Z,102202.97
2022-12-03T01:30:56.931Z,102201.19
2022-12-03T01:33:24.650Z,102201.19
2022-12-03T01:35:52.147Z,102203.81
2022-12-03T01:38:19.748Z,102203.03
2022-12-03T01:40:47.343Z,102204.81
2022-12-03T01:43:14.936Z,102204.81
2022-12-03T01:45:42.410Z,102198.72
2022-12-03T01:48:16.679Z,102195.19
2022-12-03T01:50:44.651Z,102196.78
2022-12-03T01:53:19.001Z,102192.41
2022-12-03T01:55:48.804Z,102195.00
2022-12-03T01:58:21.306Z,102198.50
2022-12-03T02:00:48.888Z,102190.72
2022-12-03T02:03:23.237Z,102189.06
2022-12-03T02:05:51.313Z,102202.06
2022-12-03T02:08:58.782Z,102196.00
2022-12-03T02:11:40.801Z,102191.59
2022-12-03T02:14:16.278Z,102197.66
2022-12-03T02:16:44.751Z,102196.78
2022-12-03T02:19:24.392Z,102194.25
2022-12-03T02:22:31.791Z,102191.72
2022-12-03T02:24:59.389Z,102198.63
2022-12-03T02:27:28.647Z,102195.13
2022-12-03T02:29:56.833Z,102191.53
2022-12-03T02:32:24.339Z,102189.75
2022-12-03T02:34:52.354Z,102185.34
2022-12-03T02:37:30.781Z,102186.22
2022-12-03T02:40:09.286Z,102179.31
2022-12-03T02:42:37.154Z,102181.03
2022-12-03T02:45:16.383Z,102174.97
2022-12-03T02:47:54.048Z,102175.84
2022-12-03T02:50:31.944Z,102174.06
2022-12-03T02:53:04.716Z,102167.97
2022-12-03T02:55:37.000Z,102172.38
2022-12-03T02:58:06.265Z,102167.94
2022-12-03T03:00:35.750Z,102170.47
2022-12-03T03:03:07.767Z,102170.47
2022-12-03T03:05:39.806Z,102172.22
2022-12-03T03:08:09.572Z,102174.75
2022-12-03T03:10:40.648Z,102165.28
2022-12-03T03:13:14.642Z,102173.94
2022-12-03T03:15:43.014Z,102164.38
2022-12-03T03:18:13.407Z,102163.53
2022-12-03T03:20:42.183Z,102165.28
2022-12-03T03:23:12.608Z,102167.03
2022-12-03T03:25:48.700Z,102158.34
2022-12-03T03:28:17.085Z,102160.06
2022-12-03T03:30:45.095Z,102153.19
2022-12-03T03:33:13.602Z,102154.88
2022-12-03T03:35:42.480Z,102156.66
2022-12-03T03:38:10.876Z,102149.81
2022-12-03T03:40:39.155Z,102149.81
2022-12-03T03:43:07.265Z,102147.13
2022-12-03T03:45:34.769Z,102147.19
2022-12-03T03:48:02.557Z,102137.56
2022-12-03T03:50:32.096Z,102135.00
2022-12-03T03:53:02.918Z,102145.34
2022-12-03T03:55:31.895Z,102136.63
2022-12-03T03:57:59.817Z,102140.91
2022-12-03T04:00:27.490Z,102134.00
2022-12-03T04:02:54.936Z,102143.50
2022-12-03T04:05:24.853Z,102134.00
2022-12-03T04:07:52.376Z,102137.50
2022-12-03T04:10:38.879Z,102139.25
2022-12-03T04:13:07.567Z,102137.50
2022-12-03T04:15:35.056Z,102134.88
2022-12-03T04:18:21.025Z,102134.00
2022-12-03T04:20:48.512Z,102135.72
2022-12-03T04:23:16.275Z,102128.69
2022-12-03T04:26:02.338Z,102145.22
2022-12-03T04:28:48.565Z,102137.41
2022-12-03T04:31:34.641Z,102139.19
2022-12-03T04:34:20.994Z,102134.78
2022-12-03T04:36:48.592Z,102139.06
2022-12-03T04:39:16.078Z,102139.06
2022-12-03T04:41:43.471Z,102142.56
2022-12-03T04:44:29.789Z,102144.38
2022-12-03T04:46:57.351Z,102143.50
2022-12-03T04:49:24.825Z,102139.19
2022-12-03T04:51:52.523Z,102141.78
2022-12-03T04:54:20.048Z,102138.25
2022-12-03T04:56:47.468Z,102137.31
2022-12-03T04:59:16.548Z,102136.41
2022-12-03T05:01:45.184Z,102133.69
2022-12-03T05:04:14.492Z,102131.97
2022-12-03T05:06:42.773Z,102125.00
2022-12-03T05:09:10.754Z,102124.97
2022-12-03T05:11:39.501Z,102124.94
2022-12-03T05:14:07.238Z,102120.56
2022-12-03T05:16:34.747Z,102123.16
2022-12-03T05:19:04.593Z,102117.16
2022-12-03T05:21:32.169Z,102119.78
2022-12-03T05:23:59.700Z,102118.06
2022-12-03T05:26:27.152Z,102116.28
2022-12-03T05:28:54.579Z,102114.56
2022-12-03T05:31:34.168Z,102111.03
2022-12-03T05:34:04.371Z,102109.31
2022-12-03T05:36:47.009Z,102103.25
2022-12-03T05:39:48.494Z,102105.78
2022-12-03T05:42:55.541Z,102103.19
2022-12-03T05:45:47.914Z,102112.69
2022-12-03T05:48:18.410Z,102105.75
2022-12-03T05:50:51.310Z,102106.66
2022-12-03T05:53:26.115Z,102109.25
2022-12-03T05:56:05.381Z,102104.94
2022-12-03T05:58:59.934Z,102112.78
2022-12-03T06:01:51.894Z,102111.91
2022-12-03T06:04:38.945Z,102098.16
2022-12-03T06:07:17.387Z,102094.63
2022-12-03T06:09:44.949Z,102093.88
2022-12-03T06:12:12.729Z,102100.72
2022-12-03T06:14:52.271Z,102096.41
2022-12-03T06:23:44.882Z,102097.97
2022-12-03T06:26:15.092Z,102094.44
2022-12-03T06:28:46.403Z,102085.84
2022-12-03T06:31:14.099Z,102091.84
2022-12-03T06:33:41.581Z,102091.97
2022-12-03T06:36:09.330Z,102092.81
2022-12-03T06:38:36.771Z,102091.97
2022-12-03T06:41:04.272Z,102086.78
2022-12-03T06:43:31.621Z,102080.72
2022-12-03T06:45:59.173Z,102087.56
2022-12-03T06:48:26.609Z,102075.53
2022-12-03T06:50:54.121Z,102078.13
2022-12-03T06:53:21.631Z,102081.59
2022-12-03T06:55:49.128Z,102082.47
2022-12-03T06:58:16.579Z,102091.16
2022-12-03T07:00:44.928Z,102087.59
2022-12-03T07:03:18.128Z,102085.06
2022-12-03T07:06:18.146Z,102079.81
2022-12-03T07:08:45.552Z,102088.50
2022-12-03T07:11:31.254Z,102082.41
2022-12-03T07:14:05.464Z,102095.47
2022-12-03T07:16:35.952Z,102087.69
2022-12-03T07:19:12.529Z,102090.28
2022-12-03T07:21:44.058Z,102091.97
2022-12-03T07:24:21.222Z,102093.69
2022-12-03T07:26:51.162Z,102090.28
2022-12-03T07:29:23.920Z,102090.19
2022-12-03T07:31:58.962Z,102084.13
2022-12-03T07:34:27.265Z,102081.59
2022-12-03T07:36:59.420Z,102085.19
2022-12-03T07:39:29.781Z,102086.91
2022-12-03T07:41:57.427Z,102092.03
2022-12-03T07:44:24.932Z,102093.69
2022-12-03T07:46:52.438Z,102090.28
2022-12-03T07:49:19.950Z,102091.09
2022-12-03T07:51:53.925Z,102090.34
2022-12-03T07:54:21.919Z,102092.03
2022-12-03T07:56:49.887Z,102086.84
2022-12-03T07:59:18.252Z,102091.09
2022-12-03T08:01:46.140Z,102085.06
2022-12-03T08:04:14.767Z,102093.69
2022-12-03T08:06:42.228Z,102096.28
2022-12-03T08:09:14.555Z,102106.72
2022-12-03T08:11:47.785Z,102093.75
2022-12-03T08:14:19.498Z,102103.19
2022-12-03T08:16:47.836Z,102100.38
2022-12-03T08:19:17.717Z,102095.25
2022-12-03T08:21:45.564Z,102102.16
2022-12-03T08:24:19.878Z,102096.16
2022-12-03T08:26:49.572Z,102097.88
2022-12-03T08:29:19.986Z,102100.47
2022-12-03T08:31:55.308Z,102102.22
2022-12-03T08:34:27.808Z,102101.34
2022-12-03T08:37:05.778Z,102099.56
2022-12-03T08:39:45.494Z,102101.31
2022-12-03T08:42:44.693Z,102105.66
2022-12-03T08:45:32.188Z,102102.22
2022-12-03T08:48:22.428Z,102101.31
2022-12-03T08:50:50.447Z,102106.47
2022-12-03T08:53:47.747Z,102101.28
2022-12-03T08:56:27.164Z,102096.91
2022-12-03T08:59:15.899Z,102100.38
2022-12-03T09:01:46.226Z,102102.03
2022-12-03T09:04:53.242Z,102108.13
2022-12-03T09:07:20.794Z,102099.44
2022-12-03T09:09:48.362Z,102107.22
2022-12-03T09:12:15.854Z,102108.13
2022-12-03T09:14:43.362Z,102109.00
2022-12-03T09:17:10.947Z,102104.69
2022-12-03T09:19:46.187Z,102107.38
2022-12-03T09:22:15.199Z,102107.41
2022-12-03T09:24:42.738Z,102109.19
2022-12-03T09:27:10.129Z,102105.66
2022-12-03T09:29:37.765Z,102107.41
2022-12-03T09:32:05.337Z,102107.41
2022-12-03T09:34:34.733Z,102103.06
2022-12-03T09:37:02.173Z,102104.00
2022-12-03T09:39:31.142Z,102110.06
2022-12-03T09:41:58.599Z,102099.81
2022-12-03T09:44:29.819Z,102095.47
2022-12-03T09:47:00.750Z,102093.69
2022-12-03T09:49:31.762Z,102098.00
2022-12-03T09:52:02.882Z,102091.97
2022-12-03T09:54:32.440Z,102082.38
2022-12-03T09:57:03.544Z,102088.56
2022-12-03T09:59:34.649Z,102078.16
2022-12-03T10:02:03.669Z,102073.88
2022-12-03T10:04:31.697Z,102072.13
2022-12-03T10:06:59.297Z,102081.66
2022-12-03T10:09:29.279Z,102090.28
2022-12-03T10:11:59.381Z,102081.66
2022-12-03T10:14:28.125Z,102080.00
2022-12-03T10:16:56.529Z,102076.56
2022-12-03T10:19:31.676Z,102073.25
2022-12-03T10:22:01.673Z,102074.84
2022-12-03T10:24:36.200Z,102070.53
2022-12-03T10:27:22.162Z,102065.34
2022-12-03T10:29:59.174Z,102052.31
2022-12-03T10:32:41.699Z,102052.38
2022-12-03T10:35:13.226Z,102045.47
2022-12-03T10:38:07.891Z,102048.09
2022-12-03T10:40:39.145Z,102035.09
2022-12-03T10:43:18.796Z,102039.47
2022-12-03T10:45:51.330Z,102031.66
2022-12-03T10:48:27.322Z,102029.06
2022-12-03T10:51:21.129Z,102030.81
2022-12-03T10:53:50.770Z,102037.69
2022-12-03T10:56:26.328Z,102023.03
2022-12-03T10:58:54.455Z,102021.28
2022-12-03T11:01:25.909Z,102013.47
2022-12-03T11:04:04.995Z,102019.53
2022-12-03T11:06:33.095Z,102016.00
2022-12-03T11:09:08.305Z,102017.75
2022-12-03T11:11:36.863Z,102019.53
2022-12-03T11:14:05.276Z,102012.75
2022-12-03T11:16:39.143Z,102012.91
2022-12-03T11:19:12.582Z,101999.16
2022-12-03T11:22:05.106Z,101997.34
2022-12-03T11:24:38.896Z,101997.34
2022-12-03T11:27:16.903Z,101994.72
2022-12-03T11:29:59.202Z,101984.44
2022-12-03T11:33:00.498Z,101988.81
2022-12-03T11:35:37.803Z,101984.38
2022-12-03T11:38:52.430Z,101979.19
2022-12-03T11:41:32.736Z,101972.22
2022-12-03T11:44:31.122Z,101977.44
2022-12-03T11:47:23.866Z,101975.69
2022-12-03T11:50:01.223Z,101969.63
2022-12-03T11:52:32.519Z,101968.81
2022-12-03T11:55:15.912Z,101959.19
2022-12-03T11:57:43.755Z,101958.28
2022-12-03T12:00:24.037Z,101954.00
2022-12-03T12:02:57.534Z,101949.72
2022-12-03T12:05:35.571Z,101955.94
2022-12-03T12:08:03.976Z,101952.50
2022-12-03T12:10:49.194Z,101951.69
2022-12-03T12:13:32.035Z,101949.88
2022-12-03T12:16:06.820Z,101950.66
2022-12-03T12:18:55.058Z,101951.63
2022-12-03T12:21:48.086Z,101949.94
2022-12-03T12:24:40.664Z,101947.28
2022-12-03T12:27:11.443Z,101937.59
2022-12-03T12:29:41.981Z,101937.59
2022-12-03T12:32:09.480Z,101937.53
2022-12-03T12:34:39.014Z,101933.31
2022-12-03T12:37:12.988Z,101928.19
2022-12-03T12:39:40.966Z,101927.31
2022-12-03T12:42:33.072Z,101918.66
2022-12-03T12:45:16.835Z,101922.06
2022-12-03T12:48:19.765Z,101916.78
2022-12-03T12:51:09.804Z,101921.16
2022-12-03T12:53:40.790Z,101912.50
2022-12-03T12:56:28.058Z,101917.75
2022-12-03T12:59:01.096Z,101915.97
2022-12-03T13:01:30.978Z,101916.06
2022-12-03T13:03:59.668Z,101921.22
2022-12-03T13:06:31.385Z,101911.66
2022-12-03T13:09:01.002Z,101909.00
2022-12-03T13:11:45.902Z,101910.66
2022-12-03T13:14:24.194Z,101902.09
2022-12-03T13:16:55.205Z,101903.81
2022-12-03T13:19:30.438Z,101890.84
2022-12-03T13:22:10.182Z,101885.66
2022-12-03T13:24:50.717Z,101887.34
2022-12-03T13:27:18.086Z,101889.97
2022-12-03T13:29:50.123Z,101880.47
2022-12-03T13:32:27.709Z,101888.19
2022-12-03T13:35:30.125Z,101891.72
2022-12-03T13:38:01.554Z,101883.06
2022-12-03T13:40:32.842Z,101889.06
2022-12-03T13:43:05.110Z,101891.63
2022-12-03T13:45:38.631Z,101881.41
2022-12-03T13:48:24.092Z,101871.94
2022-12-03T13:50:53.315Z,101877.88
2022-12-03T13:53:26.633Z,101877.88
2022-12-03T13:56:31.866Z,101878.69
2022-12-03T13:59:01.132Z,101873.44
2022-12-03T14:01:29.285Z,101870.00
2022-12-03T14:03:57.128Z,101866.44
2022-12-03T14:06:24.641Z,101872.47
2022-12-03T14:08:52.106Z,101869.94
2022-12-03T14:11:38.180Z,101870.81
2022-12-03T14:14:05.858Z,101865.56
2022-12-03T14:16:33.427Z,101867.31
2022-12-03T14:19:01.003Z,101869.84
2022-12-03T14:21:28.475Z,101863.69
2022-12-03T14:23:55.898Z,101862.88
2022-12-03T14:26:23.331Z,101864.53
2022-12-03T14:28:50.711Z,101866.28
2022-12-03T14:31:18.231Z,101866.28
2022-12-03T14:33:45.750Z,101863.69
2022-12-03T14:36:13.198Z,101860.19
2022-12-03T14:38:40.612Z,101870.53
2022-12-03T14:41:28.159Z,101859.31
2022-12-03T14:43:55.585Z,101872.22
2022-12-03T14:46:23.234Z,101865.31
2022-12-03T14:48:50.629Z,101862.72
2022-12-03T14:51:18.118Z,101861.84
2022-12-03T14:53:45.532Z,101861.84
2022-12-03T14:56:12.931Z,101859.25
2022-12-03T14:58:40.414Z,101859.19
2022-12-03T15:01:07.971Z,101856.56
2022-12-03T15:03:35.422Z,101853.91
2022-12-03T15:06:02.914Z,101845.22
2022-12-03T15:08:30.439Z,101856.34
2022-12-03T15:11:00.585Z,101852.03
2022-12-03T15:13:30.640Z,101852.94
2022-12-03T15:16:31.052Z,101859.97
2022-12-03T15:19:11.693Z,101848.75
2022-12-03T15:21:47.731Z,101850.41
2022-12-03T15:24:17.391Z,101846.91
2022-12-03T15:26:52.264Z,101852.09
2022-12-03T15:29:24.293Z,101847.75
2022-12-03T15:31:58.297Z,101855.50
2022-12-03T15:34:25.858Z,101859.81
2022-12-03T15:36:53.258Z,101853.75
2022-12-03T15:39:20.699Z,101855.41
2022-12-03T15:41:48.785Z,101862.28
2022-12-03T15:44:17.743Z,101862.19
2022-12-03T15:46:45.319Z,101862.19
2022-12-03T15:49:15.279Z,101859.38
2022-12-03T15:51:42.710Z,101862.72
2022-12-03T15:54:12.194Z,101867.84
2022-12-03T15:56:39.791Z,101861.63
2022-12-03T15:59:07.294Z,101863.31
2022-12-03T16:01:34.762Z,101852.03
2022-12-03T16:04:04.816Z,101854.59
2022-12-03T16:06:32.220Z,101843.38
2022-12-03T16:08:59.667Z,101858.81
2022-12-03T16:11:29.291Z,101841.50
2022-12-03T16:13:56.767Z,101857.03
2022-12-03T16:16:24.302Z,101849.13
2022-12-03T16:18:51.731Z,101855.91
2022-12-03T16:21:23.477Z,101851.59
2022-12-03T16:23:56.276Z,101850.63
2022-12-03T16:26:26.210Z,101858.34
2022-12-03T16:28:54.872Z,101851.50
2022-12-03T16:31:24.834Z,101850.63
2022-12-03T16:33:52.402Z,101848.00
2022-12-03T16:36:19.833Z,101850.47
2022-12-03T16:38:47.301Z,101845.28
2022-12-03T16:41:14.797Z,101847.00
2022-12-03T16:43:45.404Z,101844.47
2022-12-03T16:46:19.135Z,101847.81
2022-12-03T16:48:48.256Z,101838.19
2022-12-03T16:51:19.159Z,101841.72
2022-12-03T16:53:48.899Z,101840.03
2022-12-03T16:56:26.415Z,101847.00
2022-12-03T16:59:00.296Z,101835.72
2022-12-03T17:01:27.790Z,101845.22
2022-12-03T17:03:55.373Z,101839.19
2022-12-03T17:06:25.300Z,101838.38
2022-12-03T17:08:52.765Z,101826.34
2022-12-03T17:11:20.336Z,101833.19
2022-12-03T17:13:47.778Z,101828.00
2022-12-03T17:16:15.282Z,101825.41
2022-12-03T17:18:42.995Z,101831.47
2022-12-03T17:21:10.524Z,101825.38
2022-12-03T17:23:37.983Z,101837.47
2022-12-03T17:26:05.504Z,101834.09
2022-12-03T17:28:32.929Z,101836.69
2022-12-03T17:31:00.394Z,101839.31
2022-12-03T17:33:27.858Z,101834.09
2022-12-03T17:35:55.272Z,101821.97
2022-12-03T17:38:22.784Z,101822.03
2022-12-03T17:40:50.237Z,101818.59
2022-12-03T17:43:17.650Z,101817.78
2022-12-03T17:45:45.067Z,101820.25
2022-12-03T17:48:12.447Z,101823.69
2022-12-03T17:50:40.827Z,101815.88
2022-12-03T17:53:10.543Z,101814.13
2022-12-03T17:55:44.363Z,101802.06
2022-12-03T17:58:13.795Z,101812.41
2022-12-03T18:00:42.069Z,101809.78
2022-12-03T18:03:09.628Z,101808.84
2022-12-03T18:05:39.843Z,101801.97
2022-12-03T18:08:07.285Z,101806.31
2022-12-03T18:10:34.819Z,101812.28
2022-12-03T18:13:02.558Z,101811.41
2022-12-03T18:15:31.920Z,101807.06
2022-12-03T18:17:59.291Z,101811.38
2022-12-03T18:20:26.843Z,101813.91
2022-12-03T18:22:54.355Z,101815.63
2022-12-03T18:25:21.832Z,101817.31
2022-12-03T18:27:49.250Z,101817.38
2022-12-03T18:30:16.855Z,101819.91
2022-12-03T18:32:44.404Z,101818.13
2022-12-03T18:35:11.871Z,101817.31
2022-12-03T18:37:39.896Z,101806.78
2022-12-03T18:40:16.245Z,101811.97
2022-12-03T18:42:43.747Z,101809.47
2022-12-03T18:45:13.185Z,101809.38
2022-12-03T18:47:40.965Z,101809.38
2022-12-03T18:50:10.794Z,101808.50
2022-12-03T18:52:38.955Z,101796.44
2022-12-03T18:55:07.442Z,101806.84
2022-12-03T18:57:34.995Z,101797.34
2022-12-03T19:00:13.275Z,101796.50
2022-12-03T19:05:29.780Z,101795.63
2022-12-03T19:07:57.212Z,101807.63
2022-12-03T19:10:25.634Z,101802.47
2022-12-03T19:12:54.656Z,101793.03
2022-12-03T19:15:22.837Z,101806.78
2022-12-03T19:17:51.403Z,101807.63
2022-12-03T19:20:18.915Z,101799.75
2022-12-03T19:22:46.291Z,101797.16
2022-12-03T19:25:13.773Z,101795.34
2022-12-03T19:27:44.822Z,101783.31
2022-12-03T19:30:14.711Z,101794.53
2022-12-03T19:32:45.772Z,101791.94
2022-12-03T19:35:13.340Z,101792.72
2022-12-03T19:37:40.802Z,101785.03
2022-12-03T19:40:10.332Z,101778.16
2022-12-03T19:42:38.223Z,101786.75
2022-12-03T19:45:06.954Z,101782.41
2022-12-03T19:47:36.335Z,101778.13
2022-12-03T19:50:05.909Z,101784.06
2022-12-03T19:52:36.306Z,101782.31
2022-12-03T19:55:04.287Z,101777.19
2022-12-03T19:57:31.861Z,101772.91
2022-12-03T19:59:59.785Z,101789.16
2022-12-03T20:02:27.312Z,101777.09
2022-12-03T20:04:54.933Z,101774.47
2022-12-03T20:07:22.421Z,101775.31
2022-12-03T20:09:51.413Z,101783.13
2022-12-03T20:12:18.911Z,101790.78
2022-12-03T20:14:46.497Z,101782.09
2022-12-03T20:17:13.968Z,101788.16
2022-12-03T20:19:41.360Z,101793.31
2022-12-03T20:22:09.087Z,101793.31
2022-12-03T20:24:36.453Z,101788.13
2022-12-03T20:27:03.878Z,101794.13
2022-12-03T20:29:31.291Z,101784.63
2022-12-03T20:31:59.820Z,101789.81
2022-12-03T20:34:27.356Z,101786.34
2022-12-03T20:36:54.754Z,101780.34
2022-12-03T20:39:22.217Z,101784.63
2022-12-03T20:41:52.526Z,101777.63
2022-12-03T20:44:20.000Z,101785.47
2022-12-03T20:46:47.439Z,101771.69
2022-12-03T20:49:15.340Z,101781.19
2022-12-03T20:51:42.983Z,101769.09
2022-12-03T20:54:10.490Z,101772.44
2022-12-03T20:56:43.621Z,101764.59
2022-12-03T20:59:14.510Z,101764.66
2022-12-03T21:01:44.046Z,101771.50
2022-12-03T21:04:18.050Z,101763.75
2022-12-03T21:06:45.956Z,101764.66
2022-12-03T21:09:13.886Z,101767.19
2022-12-03T21:11:42.410Z,101770.69
2022-12-03T21:14:11.170Z,101771.50
2022-12-03T21:19:30.467Z,101765.53
2022-12-03T21:21:58.043Z,101766.34
2022-12-03T21:24:25.635Z,101766.34
2022-12-03T21:26:53.222Z,101762.06
2022-12-03T21:29:20.646Z,101774.16
2022-12-03T21:31:48.159Z,101753.50
2022-12-03T21:34:15.891Z,101753.50
2022-12-03T21:36:43.476Z,101754.44
2022-12-03T21:39:11.225Z,101752.66
2022-12-03T21:41:41.571Z,101745.75
2022-12-03T21:44:29.072Z,101756.91
2022-12-03T21:47:11.575Z,101743.91
2022-12-03T21:49:41.980Z,101753.50
2022-12-03T21:52:10.182Z,101746.56
2022-12-03T21:54:37.705Z,101754.31
2022-12-03T21:57:05.231Z,101750.97
2022-12-03T21:59:32.830Z,101753.50
2022-12-03T22:02:00.700Z,101744.81
2022-12-03T22:04:28.279Z,101741.50
2022-12-03T22:06:55.718Z,101746.56
2022-12-03T22:09:26.477Z,101744.81
2022-12-03T22:11:59.272Z,101748.34
2022-12-03T22:14:28.512Z,101748.34
2022-12-03T22:16:56.024Z,101748.41
2022-12-03T22:19:25.025Z,101747.47
2022-12-03T22:21:52.569Z,101744.91
2022-12-03T22:24:20.154Z,101736.31
2022-12-03T22:26:47.964Z,101733.63
2022-12-03T22:29:15.613Z,101733.69
2022-12-03T22:31:43.166Z,101736.22
2022-12-03T22:34:10.592Z,101737.13
2022-12-03T22:36:38.194Z,101730.16
2022-12-03T22:39:05.683Z,101731.94
2022-12-03T22:41:33.084Z,101733.69
2022-12-03T22:44:00.509Z,101731.13
2022-12-03T22:46:28.008Z,101725.03
2022-12-03T22:48:55.560Z,101726.75
2022-12-03T22:51:25.734Z,101737.06
2022-12-03T22:53:59.221Z,101725.84
2022-12-03T22:56:29.697Z,101725.00
2022-12-03T22:58:57.650Z,101725.91
2022-12-03T23:01:32.472Z,101720.72
2022-12-03T23:04:01.247Z,101718.09
2022-12-03T23:06:30.340Z,101724.13
2022-12-03T23:08:59.105Z,101725.84
2022-12-03T23:11:27.535Z,101724.19
2022-12-03T23:13:55.198Z,101729.41
2022-12-03T23:16:27.392Z,101725.13
2022-12-03T23:18:55.199Z,101724.19
2022-12-03T23:21:30.092Z,101716.41
2022-12-03T23:24:03.646Z,101724.19
2022-12-03T23:26:36.086Z,101726.78
2022-12-03T23:29:05.655Z,101716.41
2022-12-03T23:31:34.592Z,101712.97
2022-12-03T23:34:02.948Z,101713.84
2022-12-03T23:36:33.095Z,101714.75
2022-12-03T23:39:00.806Z,101718.16
2022-12-03T23:41:28.585Z,101708.66
2022-12-03T23:43:56.888Z,101707.00
2022-12-03T23:46:27.328Z,101705.25
2022-12-03T23:48:58.471Z,101701.81
2022-12-03T23:51:26.669Z,101702.69
2022-12-03T23:53:55.557Z,101704.41
2022-12-03T23:56:30.954Z,101701.81
2022-12-03T23:59:00.952Z,101697.50
